Summerford, Canada
Current Conditions -  °F | °C
As of 1:00 PM on Monday 22 Dec 2014 (Local Time) from CYQX Reporting Station
Broken Clouds Broken Clouds  
Wind Chill: 16°   Ceiling: 1400
Heat Index: 25°   Visibility: 20mi
Dew Point: 19°   Wind: 8mph
Humidity: 80%   Direction: 350°N
Pressure: 30.4"   Gusts: NA
Location:  49.48°N, 54.83°W
Report Text: CYQX 221600Z 35007KT 20SM BKN014 M04/M07 A3040 RMK SC7 SLP304
Loading
Personal Weather Stations






























Interactive Weather Map New forecast layout! Learn more

10-Day Weather Forecast

Advertisements
Track Severe Weather on mobile